首页
METAR-TAF:

METAR-TAF

机场 :

凡城, 土耳其

纬度: 38-27N, 经度: 043-19E, 海拔: 1667米

当前天气观测

该预报发布于31分钟前的16:50 UTC
风速1节,风向多变
温度 18°C
湿度 64%
气压 1015 hPa
能见度10公里或以上
少量云层高于4000英尺

METAR: LTCI 171650Z VRB01KT 9999 FEW040 18/11 Q1015 NOSIG

时间: 20:21 (17:21 UTC)

预报

该预报发布于3小时和41分钟前的13:40 UTC
预报有效从17日的 15点(UTC)到 17日的 24点(UTC)
风速9节,风向西
能见度10公里或以上
散云层高于3500英尺
散云层高于8000英尺
成为
从 17日的 16点(UTC)到 17日的 18点(UTC)
风速10节,风向东转东南

TAF: LTCI 171340Z 1715/1724 27009KT 9999 SCT035 SCT080 BECMG 1716/1718 12010KT

超过4000个机场的气象观测和天气预报(METAR&TAF报告)。

可查询的气象台以黄色和红色小点在地图上表示。

将鼠标移到小点上方,可查看气象台名称。

然后点击查看天气观测和预报。

如需切换地图:点击带黑十字的绿色按钮放大地图;点击带横线的绿色按钮缩小地图;或者点击绿色箭头查看邻近地区的地图。


METAR-TAF: